sensor_id;sensor_type;location;lat;lon;timestamp;P1;durP1;ratioP1;P2;durP2;ratioP2
72205;SDS011;60111;48.286;7.812;2022-08-20T00:00:53;10.63;;;9.60;;
72205;SDS011;60111;48.286;7.812;2022-08-20T00:03:28;10.70;;;9.70;;
72205;SDS011;60111;48.286;7.812;2022-08-20T00:06:05;11.28;;;10.10;;
72205;SDS011;60111;48.286;7.812;2022-08-20T00:08:47;10.25;;;9.23;;
72205;SDS011;60111;48.286;7.812;2022-08-20T00:11:22;11.50;;;9.38;;
72205;SDS011;60111;48.286;7.812;2022-08-20T00:13:56;11.97;;;10.48;;
72205;SDS011;60111;48.286;7.812;2022-08-20T00:16:33;11.78;;;10.58;;
72205;SDS011;60111;48.286;7.812;2022-08-20T00:19:08;10.35;;;9.30;;
72205;SDS011;60111;48.286;7.812;2022-08-20T00:21:41;11.83;;;10.40;;
72205;SDS011;60111;48.286;7.812;2022-08-20T00:24:13;11.25;;;10.03;;
72205;SDS011;60111;48.286;7.812;2022-08-20T00:26:46;12.47;;;10.32;;
72205;SDS011;60111;48.286;7.812;2022-08-20T00:29:19;11.40;;;9.35;;
72205;SDS011;60111;48.286;7.812;2022-08-20T00:31:52;11.28;;;9.80;;
72205;SDS011;60111;48.286;7.812;2022-08-20T00:34:24;11.90;;;10.53;;
72205;SDS011;60111;48.286;7.812;2022-08-20T00:36:57;11.00;;;9.90;;
72205;SDS011;60111;48.286;7.812;2022-08-20T00:39:30;12.25;;;10.00;;
72205;SDS011;60111;48.286;7.812;2022-08-20T00:42:03;13.00;;;10.40;;
72205;SDS011;60111;48.286;7.812;2022-08-20T00:44:36;14.27;;;10.33;;
72205;SDS011;60111;48.286;7.812;2022-08-20T00:47:11;11.20;;;10.13;;
72205;SDS011;60111;48.286;7.812;2022-08-20T00:49:44;10.48;;;9.45;;
72205;SDS011;60111;48.286;7.812;2022-08-20T00:52:17;13.32;;;10.40;;
72205;SDS011;60111;48.286;7.812;2022-08-20T00:54:56;16.52;;;11.20;;
72205;SDS011;60111;48.286;7.812;2022-08-20T00:57:31;11.28;;;10.18;;
72205;SDS011;60111;48.286;7.812;2022-08-20T01:00:08;10.55;;;9.20;;
72205;SDS011;60111;48.286;7.812;2022-08-20T01:02:41;13.80;;;10.43;;
72205;SDS011;60111;48.286;7.812;2022-08-20T01:05:16;11.73;;;10.30;;
72205;SDS011;60111;48.286;7.812;2022-08-20T01:07:54;12.33;;;11.03;;
72205;SDS011;60111;48.286;7.812;2022-08-20T01:10:25;11.45;;;10.20;;
72205;SDS011;60111;48.286;7.812;2022-08-20T01:13:00;12.50;;;10.10;;
72205;SDS011;60111;48.286;7.812;2022-08-20T01:15:38;13.32;;;11.38;;
72205;SDS011;60111;48.286;7.812;2022-08-20T01:18:16;11.40;;;9.95;;
72205;SDS011;60111;48.286;7.812;2022-08-20T01:20:54;11.25;;;10.20;;
72205;SDS011;60111;48.286;7.812;2022-08-20T01:23:32;11.97;;;10.78;;
72205;SDS011;60111;48.286;7.812;2022-08-20T01:26:17;11.15;;;10.00;;
72205;SDS011;60111;48.286;7.812;2022-08-20T01:31:30;13.78;;;11.08;;
72205;SDS011;60111;48.286;7.812;2022-08-20T01:34:04;13.45;;;10.38;;
72205;SDS011;60111;48.286;7.812;2022-08-20T01:36:41;12.60;;;11.30;;
72205;SDS011;60111;48.286;7.812;2022-08-20T01:39:16;11.48;;;10.35;;
72205;SDS011;60111;48.286;7.812;2022-08-20T01:44:39;12.63;;;9.95;;
72205;SDS011;60111;48.286;7.812;2022-08-20T01:47:15;14.30;;;10.63;;
72205;SDS011;60111;48.286;7.812;2022-08-20T01:49:51;11.85;;;10.58;;
72205;SDS011;60111;48.286;7.812;2022-08-20T01:52:35;11.73;;;9.28;;
72205;SDS011;60111;48.286;7.812;2022-08-20T01:55:14;12.18;;;10.80;;
72205;SDS011;60111;48.286;7.812;2022-08-20T01:57:46;15.48;;;10.20;;
72205;SDS011;60111;48.286;7.812;2022-08-20T02:00:19;10.80;;;9.45;;
72205;SDS011;60111;48.286;7.812;2022-08-20T02:02:52;9.90;;;8.97;;
72205;SDS011;60111;48.286;7.812;2022-08-20T02:05:26;9.58;;;8.68;;
72205;SDS011;60111;48.286;7.812;2022-08-20T02:07:59;10.60;;;9.50;;
72205;SDS011;60111;48.286;7.812;2022-08-20T02:10:34;9.40;;;8.45;;
72205;SDS011;60111;48.286;7.812;2022-08-20T02:13:07;9.60;;;8.60;;
72205;SDS011;60111;48.286;7.812;2022-08-20T02:15:40;12.43;;;9.28;;
72205;SDS011;60111;48.286;7.812;2022-08-20T02:18:13;10.25;;;8.28;;
72205;SDS011;60111;48.286;7.812;2022-08-20T02:20:46;9.20;;;8.30;;
72205;SDS011;60111;48.286;7.812;2022-08-20T02:23:20;11.43;;;8.33;;
72205;SDS011;60111;48.286;7.812;2022-08-20T02:25:52;9.95;;;8.53;;
72205;SDS011;60111;48.286;7.812;2022-08-20T02:28:26;12.73;;;8.50;;
72205;SDS011;60111;48.286;7.812;2022-08-20T02:30:59;8.60;;;7.70;;
72205;SDS011;60111;48.286;7.812;2022-08-20T02:33:33;9.10;;;7.47;;
72205;SDS011;60111;48.286;7.812;2022-08-20T02:36:06;8.95;;;8.05;;
72205;SDS011;60111;48.286;7.812;2022-08-20T02:41:12;7.83;;;7.03;;
72205;SDS011;60111;48.286;7.812;2022-08-20T02:43:45;9.03;;;7.25;;
72205;SDS011;60111;48.286;7.812;2022-08-20T02:46:19;8.43;;;7.62;;
72205;SDS011;60111;48.286;7.812;2022-08-20T02:48:52;11.60;;;8.48;;
72205;SDS011;60111;48.286;7.812;2022-08-20T02:51:26;8.73;;;7.87;;
72205;SDS011;60111;48.286;7.812;2022-08-20T02:53:58;10.87;;;7.87;;
72205;SDS011;60111;48.286;7.812;2022-08-20T02:56:31;10.48;;;7.70;;
72205;SDS011;60111;48.286;7.812;2022-08-20T02:59:04;8.83;;;7.93;;
72205;SDS011;60111;48.286;7.812;2022-08-20T03:01:37;9.25;;;7.58;;
72205;SDS011;60111;48.286;7.812;2022-08-20T03:04:10;9.95;;;7.90;;
72205;SDS011;60111;48.286;7.812;2022-08-20T03:06:43;9.90;;;7.43;;
72205;SDS011;60111;48.286;7.812;2022-08-20T03:09:15;9.63;;;7.43;;
72205;SDS011;60111;48.286;7.812;2022-08-20T03:11:48;11.57;;;7.80;;
72205;SDS011;60111;48.286;7.812;2022-08-20T03:14:21;8.33;;;7.28;;
72205;SDS011;60111;48.286;7.812;2022-08-20T03:16:54;7.95;;;7.15;;
72205;SDS011;60111;48.286;7.812;2022-08-20T03:19:26;8.28;;;7.00;;
72205;SDS011;60111;48.286;7.812;2022-08-20T03:21:59;9.28;;;7.20;;
72205;SDS011;60111;48.286;7.812;2022-08-20T03:24:32;8.33;;;6.75;;
72205;SDS011;60111;48.286;7.812;2022-08-20T03:27:04;10.18;;;6.85;;
72205;SDS011;60111;48.286;7.812;2022-08-20T03:29:37;9.83;;;6.97;;
72205;SDS011;60111;48.286;7.812;2022-08-20T03:32:10;7.80;;;6.85;;
72205;SDS011;60111;48.286;7.812;2022-08-20T03:34:42;7.08;;;6.37;;
72205;SDS011;60111;48.286;7.812;2022-08-20T03:37:15;8.80;;;6.10;;
72205;SDS011;60111;48.286;7.812;2022-08-20T03:39:48;7.67;;;6.97;;
72205;SDS011;60111;48.286;7.812;2022-08-20T03:42:20;8.10;;;6.33;;
72205;SDS011;60111;48.286;7.812;2022-08-20T03:44:53;8.53;;;5.87;;
72205;SDS011;60111;48.286;7.812;2022-08-20T03:47:26;7.26;;;6.36;;
72205;SDS011;60111;48.286;7.812;2022-08-20T03:49:59;7.87;;;5.53;;
72205;SDS011;60111;48.286;7.812;2022-08-20T03:52:33;6.85;;;5.80;;
72205;SDS011;60111;48.286;7.812;2022-08-20T03:55:08;7.05;;;5.50;;
72205;SDS011;60111;48.286;7.812;2022-08-20T03:57:44;5.83;;;5.33;;
72205;SDS011;60111;48.286;7.812;2022-08-20T04:00:27;6.62;;;6.00;;
72205;SDS011;60111;48.286;7.812;2022-08-20T04:02:57;7.45;;;5.60;;
72205;SDS011;60111;48.286;7.812;2022-08-20T04:05:30;5.90;;;5.13;;
72205;SDS011;60111;48.286;7.812;2022-08-20T04:08:04;7.07;;;5.60;;
72205;SDS011;60111;48.286;7.812;2022-08-20T04:10:38;8.93;;;5.53;;
72205;SDS011;60111;48.286;7.812;2022-08-20T04:13:12;10.67;;;5.37;;
72205;SDS011;60111;48.286;7.812;2022-08-20T04:15:45;7.23;;;5.60;;
72205;SDS011;60111;48.286;7.812;2022-08-20T04:18:19;6.60;;;5.20;;
72205;SDS011;60111;48.286;7.812;2022-08-20T04:20:54;5.72;;;5.12;;
72205;SDS011;60111;48.286;7.812;2022-08-20T04:23:29;6.97;;;5.33;;
72205;SDS011;60111;48.286;7.812;2022-08-20T04:26:02;7.20;;;5.20;;
72205;SDS011;60111;48.286;7.812;2022-08-20T04:28:35;5.72;;;5.12;;
72205;SDS011;60111;48.286;7.812;2022-08-20T04:31:07;5.97;;;5.10;;
72205;SDS011;60111;48.286;7.812;2022-08-20T04:33:42;7.15;;;5.17;;
72205;SDS011;60111;48.286;7.812;2022-08-20T04:36:14;8.63;;;5.60;;
72205;SDS011;60111;48.286;7.812;2022-08-20T04:38:47;5.62;;;5.03;;
72205;SDS011;60111;48.286;7.812;2022-08-20T04:41:21;8.18;;;5.80;;
72205;SDS011;60111;48.286;7.812;2022-08-20T04:43:55;8.57;;;5.33;;
72205;SDS011;60111;48.286;7.812;2022-08-20T04:46:28;6.12;;;5.53;;
72205;SDS011;60111;48.286;7.812;2022-08-20T04:49:02;5.97;;;5.45;;
72205;SDS011;60111;48.286;7.812;2022-08-20T04:51:35;5.55;;;5.05;;
72205;SDS011;60111;48.286;7.812;2022-08-20T04:54:08;5.43;;;4.93;;
72205;SDS011;60111;48.286;7.812;2022-08-20T04:56:41;6.22;;;4.95;;
72205;SDS011;60111;48.286;7.812;2022-08-20T04:59:14;7.33;;;5.17;;
72205;SDS011;60111;48.286;7.812;2022-08-20T05:01:46;5.30;;;4.80;;
72205;SDS011;60111;48.286;7.812;2022-08-20T05:04:19;7.03;;;5.65;;
72205;SDS011;60111;48.286;7.812;2022-08-20T05:06:51;7.50;;;5.12;;
72205;SDS011;60111;48.286;7.812;2022-08-20T05:09:25;6.83;;;5.42;;
72205;SDS011;60111;48.286;7.812;2022-08-20T05:11:58;6.87;;;5.47;;
72205;SDS011;60111;48.286;7.812;2022-08-20T05:14:30;6.90;;;5.95;;
72205;SDS011;60111;48.286;7.812;2022-08-20T05:17:03;7.92;;;5.95;;
72205;SDS011;60111;48.286;7.812;2022-08-20T05:19:36;10.50;;;6.50;;
72205;SDS011;60111;48.286;7.812;2022-08-20T05:22:11;12.65;;;6.53;;
72205;SDS011;60111;48.286;7.812;2022-08-20T05:24:43;7.15;;;6.50;;
72205;SDS011;60111;48.286;7.812;2022-08-20T05:27:19;7.17;;;6.35;;
72205;SDS011;60111;48.286;7.812;2022-08-20T05:29:52;7.10;;;6.40;;
72205;SDS011;60111;48.286;7.812;2022-08-20T05:32:26;10.43;;;6.03;;
72205;SDS011;60111;48.286;7.812;2022-08-20T05:35:08;11.22;;;6.17;;
72205;SDS011;60111;48.286;7.812;2022-08-20T05:37:39;7.28;;;6.10;;
72205;SDS011;60111;48.286;7.812;2022-08-20T05:40:13;8.80;;;6.37;;
72205;SDS011;60111;48.286;7.812;2022-08-20T05:42:46;11.03;;;6.27;;
72205;SDS011;60111;48.286;7.812;2022-08-20T05:45:19;8.78;;;6.08;;
72205;SDS011;60111;48.286;7.812;2022-08-20T05:47:52;9.25;;;6.22;;
72205;SDS011;60111;48.286;7.812;2022-08-20T05:50:25;9.03;;;6.72;;
72205;SDS011;60111;48.286;7.812;2022-08-20T05:52:57;7.07;;;5.50;;
72205;SDS011;60111;48.286;7.812;2022-08-20T05:55:31;7.23;;;6.50;;
72205;SDS011;60111;48.286;7.812;2022-08-20T05:58:06;10.50;;;6.50;;
72205;SDS011;60111;48.286;7.812;2022-08-20T06:00:40;10.98;;;6.45;;
72205;SDS011;60111;48.286;7.812;2022-08-20T06:03:14;6.50;;;5.75;;
72205;SDS011;60111;48.286;7.812;2022-08-20T06:06:07;9.20;;;6.28;;
72205;SDS011;60111;48.286;7.812;2022-08-20T06:08:40;7.22;;;6.25;;
72205;SDS011;60111;48.286;7.812;2022-08-20T06:11:18;10.10;;;6.63;;
72205;SDS011;60111;48.286;7.812;2022-08-20T06:13:47;9.25;;;6.08;;
72205;SDS011;60111;48.286;7.812;2022-08-20T06:16:19;9.30;;;6.83;;
72205;SDS011;60111;48.286;7.812;2022-08-20T06:18:52;7.72;;;6.37;;
72205;SDS011;60111;48.286;7.812;2022-08-20T06:21:25;12.23;;;6.47;;
72205;SDS011;60111;48.286;7.812;2022-08-20T06:23:58;12.60;;;6.10;;
72205;SDS011;60111;48.286;7.812;2022-08-20T06:26:33;9.63;;;6.70;;
72205;SDS011;60111;48.286;7.812;2022-08-20T06:31:37;8.68;;;6.87;;
72205;SDS011;60111;48.286;7.812;2022-08-20T06:34:10;12.07;;;7.87;;
72205;SDS011;60111;48.286;7.812;2022-08-20T06:36:42;8.98;;;7.28;;
72205;SDS011;60111;48.286;7.812;2022-08-20T06:39:19;8.23;;;6.97;;
72205;SDS011;60111;48.286;7.812;2022-08-20T06:41:52;11.80;;;7.93;;
72205;SDS011;60111;48.286;7.812;2022-08-20T06:44:26;8.05;;;6.87;;
72205;SDS011;60111;48.286;7.812;2022-08-20T06:46:59;11.65;;;6.70;;
72205;SDS011;60111;48.286;7.812;2022-08-20T06:49:34;10.43;;;7.22;;
72205;SDS011;60111;48.286;7.812;2022-08-20T06:52:07;11.38;;;8.10;;
72205;SDS011;60111;48.286;7.812;2022-08-20T06:54:40;10.78;;;7.55;;
72205;SDS011;60111;48.286;7.812;2022-08-20T06:57:13;10.87;;;7.60;;
72205;SDS011;60111;48.286;7.812;2022-08-20T06:59:47;14.60;;;8.17;;
72205;SDS011;60111;48.286;7.812;2022-08-20T07:02:19;13.25;;;10.05;;
72205;SDS011;60111;48.286;7.812;2022-08-20T07:04:53;27.02;;;16.95;;
72205;SDS011;60111;48.286;7.812;2022-08-20T07:07:27;19.45;;;14.87;;
72205;SDS011;60111;48.286;7.812;2022-08-20T07:10:00;16.65;;;10.68;;
72205;SDS011;60111;48.286;7.812;2022-08-20T07:12:34;17.75;;;12.68;;
72205;SDS011;60111;48.286;7.812;2022-08-20T07:15:08;15.00;;;9.28;;
72205;SDS011;60111;48.286;7.812;2022-08-20T07:17:47;14.05;;;10.32;;
72205;SDS011;60111;48.286;7.812;2022-08-20T07:20:19;12.33;;;8.53;;
72205;SDS011;60111;48.286;7.812;2022-08-20T07:22:52;9.70;;;6.58;;
72205;SDS011;60111;48.286;7.812;2022-08-20T07:25:26;7.20;;;6.22;;
72205;SDS011;60111;48.286;7.812;2022-08-20T07:28:00;9.20;;;6.10;;
72205;SDS011;60111;48.286;7.812;2022-08-20T07:30:35;6.65;;;5.33;;
72205;SDS011;60111;48.286;7.812;2022-08-20T07:33:27;8.58;;;5.30;;
72205;SDS011;60111;48.286;7.812;2022-08-20T07:36:01;8.68;;;5.30;;
72205;SDS011;60111;48.286;7.812;2022-08-20T07:38:34;5.62;;;4.92;;
72205;SDS011;60111;48.286;7.812;2022-08-20T07:41:08;6.58;;;5.20;;
72205;SDS011;60111;48.286;7.812;2022-08-20T07:43:43;7.97;;;5.60;;
72205;SDS011;60111;48.286;7.812;2022-08-20T07:46:21;6.80;;;5.37;;
72205;SDS011;60111;48.286;7.812;2022-08-20T07:48:51;7.72;;;5.20;;
72205;SDS011;60111;48.286;7.812;2022-08-20T07:51:24;6.55;;;5.95;;
72205;SDS011;60111;48.286;7.812;2022-08-20T07:56:30;8.10;;;5.78;;
72205;SDS011;60111;48.286;7.812;2022-08-20T07:59:02;12.50;;;6.40;;
72205;SDS011;60111;48.286;7.812;2022-08-20T08:01:36;8.40;;;6.47;;
72205;SDS011;60111;48.286;7.812;2022-08-20T08:04:08;7.55;;;4.92;;
72205;SDS011;60111;48.286;7.812;2022-08-20T08:06:41;9.10;;;5.47;;
72205;SDS011;60111;48.286;7.812;2022-08-20T08:09:15;6.70;;;5.97;;
72205;SDS011;60111;48.286;7.812;2022-08-20T08:11:48;6.67;;;5.22;;
72205;SDS011;60111;48.286;7.812;2022-08-20T08:14:22;8.50;;;6.15;;
72205;SDS011;60111;48.286;7.812;2022-08-20T08:16:59;6.37;;;5.60;;
72205;SDS011;60111;48.286;7.812;2022-08-20T08:19:38;8.80;;;6.60;;
72205;SDS011;60111;48.286;7.812;2022-08-20T08:22:14;5.47;;;4.97;;
72205;SDS011;60111;48.286;7.812;2022-08-20T08:24:48;6.30;;;5.42;;
72205;SDS011;60111;48.286;7.812;2022-08-20T08:27:20;7.95;;;5.33;;
72205;SDS011;60111;48.286;7.812;2022-08-20T08:29:53;5.90;;;4.80;;
72205;SDS011;60111;48.286;7.812;2022-08-20T08:32:26;6.03;;;4.85;;
72205;SDS011;60111;48.286;7.812;2022-08-20T08:35:03;7.15;;;4.22;;
72205;SDS011;60111;48.286;7.812;2022-08-20T08:37:38;7.08;;;4.53;;
72205;SDS011;60111;48.286;7.812;2022-08-20T08:40:11;8.93;;;6.20;;
72205;SDS011;60111;48.286;7.812;2022-08-20T08:42:45;5.87;;;5.03;;
72205;SDS011;60111;48.286;7.812;2022-08-20T08:45:28;7.83;;;5.87;;
72205;SDS011;60111;48.286;7.812;2022-08-20T08:48:14;8.68;;;5.87;;
72205;SDS011;60111;48.286;7.812;2022-08-20T08:50:50;7.35;;;5.60;;
72205;SDS011;60111;48.286;7.812;2022-08-20T08:53:26;7.83;;;5.93;;
72205;SDS011;60111;48.286;7.812;2022-08-20T08:56:01;7.85;;;5.20;;
72205;SDS011;60111;48.286;7.812;2022-08-20T08:58:35;11.43;;;7.57;;
72205;SDS011;60111;48.286;7.812;2022-08-20T09:01:12;8.10;;;5.62;;
72205;SDS011;60111;48.286;7.812;2022-08-20T09:03:47;10.98;;;8.15;;
72205;SDS011;60111;48.286;7.812;2022-08-20T09:06:22;21.35;;;11.08;;
72205;SDS011;60111;48.286;7.812;2022-08-20T09:08:59;20.20;;;12.30;;
72205;SDS011;60111;48.286;7.812;2022-08-20T09:11:43;11.78;;;8.38;;
72205;SDS011;60111;48.286;7.812;2022-08-20T09:14:22;8.40;;;5.67;;
72205;SDS011;60111;48.286;7.812;2022-08-20T09:16:57;5.83;;;5.20;;
72205;SDS011;60111;48.286;7.812;2022-08-20T09:19:30;9.75;;;8.18;;
72205;SDS011;60111;48.286;7.812;2022-08-20T09:22:06;16.93;;;11.12;;
72205;SDS011;60111;48.286;7.812;2022-08-20T09:24:40;11.73;;;6.22;;
72205;SDS011;60111;48.286;7.812;2022-08-20T09:27:17;7.95;;;6.40;;
72205;SDS011;60111;48.286;7.812;2022-08-20T09:29:50;8.78;;;5.67;;
72205;SDS011;60111;48.286;7.812;2022-08-20T09:32:23;5.78;;;4.95;;
72205;SDS011;60111;48.286;7.812;2022-08-20T09:34:56;4.80;;;4.30;;
72205;SDS011;60111;48.286;7.812;2022-08-20T09:37:30;5.50;;;3.83;;
72205;SDS011;60111;48.286;7.812;2022-08-20T09:40:04;3.97;;;3.67;;
72205;SDS011;60111;48.286;7.812;2022-08-20T09:42:38;4.20;;;3.80;;
72205;SDS011;60111;48.286;7.812;2022-08-20T09:45:11;9.35;;;4.33;;
72205;SDS011;60111;48.286;7.812;2022-08-20T09:47:47;6.22;;;3.50;;
72205;SDS011;60111;48.286;7.812;2022-08-20T09:50:20;5.03;;;3.35;;
72205;SDS011;60111;48.286;7.812;2022-08-20T09:52:53;4.17;;;3.42;;
72205;SDS011;60111;48.286;7.812;2022-08-20T09:58:20;3.90;;;3.40;;
72205;SDS011;60111;48.286;7.812;2022-08-20T10:00:58;4.37;;;3.20;;
72205;SDS011;60111;48.286;7.812;2022-08-20T10:03:36;4.65;;;3.70;;
72205;SDS011;60111;48.286;7.812;2022-08-20T10:06:08;3.15;;;2.80;;
72205;SDS011;60111;48.286;7.812;2022-08-20T10:11:15;3.77;;;2.95;;
72205;SDS011;60111;48.286;7.812;2022-08-20T10:13:49;2.60;;;2.40;;
72205;SDS011;60111;48.286;7.812;2022-08-20T10:16:21;4.05;;;2.50;;
72205;SDS011;60111;48.286;7.812;2022-08-20T10:18:54;2.85;;;2.47;;
72205;SDS011;60111;48.286;7.812;2022-08-20T10:21:28;3.47;;;2.63;;
72205;SDS011;60111;48.286;7.812;2022-08-20T10:24:01;2.93;;;2.13;;
72205;SDS011;60111;48.286;7.812;2022-08-20T10:26:34;2.37;;;2.20;;
72205;SDS011;60111;48.286;7.812;2022-08-20T10:29:08;2.70;;;2.50;;
72205;SDS011;60111;48.286;7.812;2022-08-20T10:31:41;2.47;;;2.27;;
72205;SDS011;60111;48.286;7.812;2022-08-20T10:34:16;3.95;;;2.20;;
72205;SDS011;60111;48.286;7.812;2022-08-20T10:36:49;4.83;;;2.40;;
72205;SDS011;60111;48.286;7.812;2022-08-20T10:39:21;4.58;;;2.25;;
72205;SDS011;60111;48.286;7.812;2022-08-20T10:41:54;3.15;;;2.60;;
72205;SDS011;60111;48.286;7.812;2022-08-20T10:44:28;2.45;;;2.25;;
72205;SDS011;60111;48.286;7.812;2022-08-20T10:49:57;2.85;;;2.10;;
72205;SDS011;60111;48.286;7.812;2022-08-20T10:52:31;2.45;;;2.25;;
72205;SDS011;60111;48.286;7.812;2022-08-20T10:55:04;2.30;;;2.10;;
72205;SDS011;60111;48.286;7.812;2022-08-20T10:57:38;3.70;;;2.00;;
72205;SDS011;60111;48.286;7.812;2022-08-20T11:00:13;4.28;;;1.95;;
72205;SDS011;60111;48.286;7.812;2022-08-20T11:02:47;1.85;;;1.62;;
72205;SDS011;60111;48.286;7.812;2022-08-20T11:05:20;4.50;;;1.87;;
72205;SDS011;60111;48.286;7.812;2022-08-20T11:07:53;2.30;;;1.60;;
72205;SDS011;60111;48.286;7.812;2022-08-20T11:10:26;2.37;;;1.37;;
72205;SDS011;60111;48.286;7.812;2022-08-20T11:13:03;1.43;;;1.33;;
72205;SDS011;60111;48.286;7.812;2022-08-20T11:15:38;1.72;;;1.22;;
72205;SDS011;60111;48.286;7.812;2022-08-20T11:18:13;1.50;;;1.40;;
72205;SDS011;60111;48.286;7.812;2022-08-20T11:20:45;3.22;;;1.57;;
72205;SDS011;60111;48.286;7.812;2022-08-20T11:23:22;1.70;;;1.55;;
72205;SDS011;60111;48.286;7.812;2022-08-20T11:25:55;3.15;;;1.40;;
72205;SDS011;60111;48.286;7.812;2022-08-20T11:28:28;1.47;;;1.30;;
72205;SDS011;60111;48.286;7.812;2022-08-20T11:31:02;2.00;;;1.78;;
72205;SDS011;60111;48.286;7.812;2022-08-20T11:33:35;1.50;;;1.40;;
72205;SDS011;60111;48.286;7.812;2022-08-20T11:36:08;1.87;;;1.30;;
72205;SDS011;60111;48.286;7.812;2022-08-20T11:38:41;1.30;;;1.12;;
72205;SDS011;60111;48.286;7.812;2022-08-20T11:41:13;1.92;;;1.40;;
72205;SDS011;60111;48.286;7.812;2022-08-20T11:43:46;1.10;;;1.00;;
72205;SDS011;60111;48.286;7.812;2022-08-20T11:46:21;2.60;;;1.23;;
72205;SDS011;60111;48.286;7.812;2022-08-20T11:48:54;0.88;;;0.88;;
72205;SDS011;60111;48.286;7.812;2022-08-20T11:51:26;1.20;;;1.07;;
72205;SDS011;60111;48.286;7.812;2022-08-20T11:53:59;1.70;;;1.10;;
72205;SDS011;60111;48.286;7.812;2022-08-20T11:56:33;1.00;;;0.90;;
72205;SDS011;60111;48.286;7.812;2022-08-20T11:59:06;1.00;;;1.00;;
72205;SDS011;60111;48.286;7.812;2022-08-20T12:01:39;1.20;;;1.05;;
72205;SDS011;60111;48.286;7.812;2022-08-20T12:04:11;0.88;;;0.82;;
72205;SDS011;60111;48.286;7.812;2022-08-20T12:06:44;1.57;;;0.88;;
72205;SDS011;60111;48.286;7.812;2022-08-20T12:09:17;0.90;;;0.40;;
72205;SDS011;60111;48.286;7.812;2022-08-20T12:11:49;5.80;;;0.55;;
72205;SDS011;60111;48.286;7.812;2022-08-20T12:14:22;0.60;;;0.53;;
72205;SDS011;60111;48.286;7.812;2022-08-20T12:16:57;0.77;;;0.57;;
72205;SDS011;60111;48.286;7.812;2022-08-20T12:19:41;2.17;;;0.70;;
72205;SDS011;60111;48.286;7.812;2022-08-20T12:22:14;5.12;;;0.80;;
72205;SDS011;60111;48.286;7.812;2022-08-20T12:24:48;1.27;;;1.00;;
72205;SDS011;60111;48.286;7.812;2022-08-20T12:27:31;3.92;;;1.15;;
72205;SDS011;60111;48.286;7.812;2022-08-20T12:29:58;1.02;;;0.95;;
72205;SDS011;60111;48.286;7.812;2022-08-20T12:32:32;0.93;;;0.80;;
72205;SDS011;60111;48.286;7.812;2022-08-20T12:35:06;1.00;;;0.90;;
72205;SDS011;60111;48.286;7.812;2022-08-20T12:37:39;1.27;;;0.90;;
72205;SDS011;60111;48.286;7.812;2022-08-20T12:42:55;2.00;;;0.80;;
72205;SDS011;60111;48.286;7.812;2022-08-20T12:45:28;0.85;;;0.68;;
72205;SDS011;60111;48.286;7.812;2022-08-20T12:48:08;1.12;;;0.62;;
72205;SDS011;60111;48.286;7.812;2022-08-20T12:50:39;1.17;;;0.80;;
72205;SDS011;60111;48.286;7.812;2022-08-20T12:53:13;1.20;;;0.70;;
72205;SDS011;60111;48.286;7.812;2022-08-20T12:55:51;0.90;;;0.82;;
72205;SDS011;60111;48.286;7.812;2022-08-20T12:58:23;0.60;;;0.60;;
72205;SDS011;60111;48.286;7.812;2022-08-20T13:00:56;0.60;;;0.60;;
72205;SDS011;60111;48.286;7.812;2022-08-20T13:03:29;0.60;;;0.60;;
72205;SDS011;60111;48.286;7.812;2022-08-20T13:06:01;0.85;;;0.68;;
72205;SDS011;60111;48.286;7.812;2022-08-20T13:08:34;0.82;;;0.62;;
72205;SDS011;60111;48.286;7.812;2022-08-20T13:11:07;7.90;;;1.03;;
72205;SDS011;60111;48.286;7.812;2022-08-20T13:13:39;0.62;;;0.60;;
72205;SDS011;60111;48.286;7.812;2022-08-20T13:16:13;0.60;;;0.60;;
72205;SDS011;60111;48.286;7.812;2022-08-20T13:18:46;2.98;;;0.82;;
72205;SDS011;60111;48.286;7.812;2022-08-20T13:21:19;1.05;;;0.80;;
72205;SDS011;60111;48.286;7.812;2022-08-20T13:23:52;0.80;;;0.80;;
72205;SDS011;60111;48.286;7.812;2022-08-20T13:26:24;0.80;;;0.70;;
72205;SDS011;60111;48.286;7.812;2022-08-20T13:28:58;0.90;;;0.60;;
72205;SDS011;60111;48.286;7.812;2022-08-20T13:31:30;0.78;;;0.78;;
72205;SDS011;60111;48.286;7.812;2022-08-20T13:34:03;0.60;;;0.60;;
72205;SDS011;60111;48.286;7.812;2022-08-20T13:36:36;1.10;;;0.70;;
72205;SDS011;60111;48.286;7.812;2022-08-20T13:39:09;0.63;;;0.63;;
72205;SDS011;60111;48.286;7.812;2022-08-20T13:41:41;0.70;;;0.70;;
72205;SDS011;60111;48.286;7.812;2022-08-20T13:44:14;4.45;;;1.25;;
72205;SDS011;60111;48.286;7.812;2022-08-20T13:46:47;0.72;;;0.72;;
72205;SDS011;60111;48.286;7.812;2022-08-20T13:49:20;0.80;;;0.80;;
72205;SDS011;60111;48.286;7.812;2022-08-20T13:51:53;1.15;;;0.65;;
72205;SDS011;60111;48.286;7.812;2022-08-20T13:54:25;1.22;;;0.70;;
72205;SDS011;60111;48.286;7.812;2022-08-20T13:57:11;0.72;;;0.72;;
72205;SDS011;60111;48.286;7.812;2022-08-20T13:59:47;0.95;;;0.90;;
72205;SDS011;60111;48.286;7.812;2022-08-20T14:02:21;1.40;;;0.90;;
72205;SDS011;60111;48.286;7.812;2022-08-20T14:04:54;2.33;;;0.90;;
72205;SDS011;60111;48.286;7.812;2022-08-20T14:07:28;1.55;;;1.20;;
72205;SDS011;60111;48.286;7.812;2022-08-20T14:10:05;1.63;;;1.17;;
72205;SDS011;60111;48.286;7.812;2022-08-20T14:12:39;1.55;;;1.00;;
72205;SDS011;60111;48.286;7.812;2022-08-20T14:15:12;1.30;;;1.20;;
72205;SDS011;60111;48.286;7.812;2022-08-20T14:17:53;0.80;;;0.80;;
72205;SDS011;60111;48.286;7.812;2022-08-20T14:20:25;2.25;;;0.80;;
72205;SDS011;60111;48.286;7.812;2022-08-20T14:22:59;1.10;;;1.00;;
72205;SDS011;60111;48.286;7.812;2022-08-20T14:25:32;1.00;;;0.90;;
72205;SDS011;60111;48.286;7.812;2022-08-20T14:28:09;3.40;;;1.20;;
72205;SDS011;60111;48.286;7.812;2022-08-20T14:30:44;1.23;;;0.80;;
72205;SDS011;60111;48.286;7.812;2022-08-20T14:33:18;1.45;;;1.00;;
72205;SDS011;60111;48.286;7.812;2022-08-20T14:35:52;1.75;;;1.65;;
72205;SDS011;60111;48.286;7.812;2022-08-20T14:38:25;1.00;;;0.90;;
72205;SDS011;60111;48.286;7.812;2022-08-20T14:40:58;0.80;;;0.80;;
72205;SDS011;60111;48.286;7.812;2022-08-20T14:43:30;1.92;;;1.82;;
72205;SDS011;60111;48.286;7.812;2022-08-20T14:46:03;2.65;;;1.10;;
72205;SDS011;60111;48.286;7.812;2022-08-20T14:48:36;0.93;;;0.80;;
72205;SDS011;60111;48.286;7.812;2022-08-20T14:51:08;1.30;;;1.00;;
72205;SDS011;60111;48.286;7.812;2022-08-20T14:53:41;0.72;;;0.70;;
72205;SDS011;60111;48.286;7.812;2022-08-20T14:56:14;1.23;;;0.90;;
72205;SDS011;60111;48.286;7.812;2022-08-20T14:58:47;0.95;;;0.80;;
72205;SDS011;60111;48.286;7.812;2022-08-20T15:01:20;2.35;;;0.75;;
72205;SDS011;60111;48.286;7.812;2022-08-20T15:03:53;0.90;;;0.62;;
72205;SDS011;60111;48.286;7.812;2022-08-20T15:06:26;3.83;;;2.30;;
72205;SDS011;60111;48.286;7.812;2022-08-20T15:08:58;1.65;;;0.90;;
72205;SDS011;60111;48.286;7.812;2022-08-20T15:11:31;2.70;;;2.50;;
72205;SDS011;60111;48.286;7.812;2022-08-20T15:14:06;1.12;;;0.95;;
72205;SDS011;60111;48.286;7.812;2022-08-20T15:16:38;1.40;;;0.73;;
72205;SDS011;60111;48.286;7.812;2022-08-20T15:19:11;0.65;;;0.65;;
72205;SDS011;60111;48.286;7.812;2022-08-20T15:21:47;1.40;;;1.07;;
72205;SDS011;60111;48.286;7.812;2022-08-20T15:24:19;0.57;;;0.57;;
72205;SDS011;60111;48.286;7.812;2022-08-20T15:26:52;0.60;;;0.60;;
72205;SDS011;60111;48.286;7.812;2022-08-20T15:29:25;0.80;;;0.80;;
72205;SDS011;60111;48.286;7.812;2022-08-20T15:31:58;2.50;;;0.90;;
72205;SDS011;60111;48.286;7.812;2022-08-20T15:34:30;3.77;;;0.80;;
72205;SDS011;60111;48.286;7.812;2022-08-20T15:37:07;0.63;;;0.63;;
72205;SDS011;60111;48.286;7.812;2022-08-20T15:39:44;3.27;;;0.80;;
72205;SDS011;60111;48.286;7.812;2022-08-20T15:42:18;2.23;;;1.00;;
72205;SDS011;60111;48.286;7.812;2022-08-20T15:44:52;1.62;;;0.80;;
72205;SDS011;60111;48.286;7.812;2022-08-20T15:50:07;1.87;;;1.77;;